sensor_id;sensor_type;location;lat;lon;timestamp;P1;durP1;ratioP1;P2;durP2;ratioP2
19623;SDS011;9959;49.798;9.928;2023-10-08T00:01:10;7.75;;;3.95;;
19623;SDS011;9959;49.798;9.928;2023-10-08T00:03:39;9.80;;;3.67;;
19623;SDS011;9959;49.798;9.928;2023-10-08T00:06:07;9.90;;;4.15;;
19623;SDS011;9959;49.798;9.928;2023-10-08T00:08:39;9.88;;;4.25;;
19623;SDS011;9959;49.798;9.928;2023-10-08T00:11:06;9.35;;;3.63;;
19623;SDS011;9959;49.798;9.928;2023-10-08T00:13:37;7.30;;;3.83;;
19623;SDS011;9959;49.798;9.928;2023-10-08T00:16:11;7.53;;;3.97;;
19623;SDS011;9959;49.798;9.928;2023-10-08T00:18:44;9.90;;;3.78;;
19623;SDS011;9959;49.798;9.928;2023-10-08T00:21:19;11.60;;;3.88;;
19623;SDS011;9959;49.798;9.928;2023-10-08T00:23:54;8.55;;;3.95;;
19623;SDS011;9959;49.798;9.928;2023-10-08T00:26:26;8.77;;;3.53;;
19623;SDS011;9959;49.798;9.928;2023-10-08T00:29:02;6.70;;;3.17;;
19623;SDS011;9959;49.798;9.928;2023-10-08T00:31:43;7.30;;;3.45;;
19623;SDS011;9959;49.798;9.928;2023-10-08T00:34:16;11.07;;;3.85;;
19623;SDS011;9959;49.798;9.928;2023-10-08T00:36:46;8.70;;;3.83;;
19623;SDS011;9959;49.798;9.928;2023-10-08T00:39:14;9.07;;;3.90;;
19623;SDS011;9959;49.798;9.928;2023-10-08T00:41:50;10.90;;;4.43;;
19623;SDS011;9959;49.798;9.928;2023-10-08T00:44:26;9.80;;;4.03;;
19623;SDS011;9959;49.798;9.928;2023-10-08T00:46:57;8.50;;;3.58;;
19623;SDS011;9959;49.798;9.928;2023-10-08T00:49:28;14.15;;;4.07;;
19623;SDS011;9959;49.798;9.928;2023-10-08T00:52:04;11.75;;;3.78;;
19623;SDS011;9959;49.798;9.928;2023-10-08T00:54:38;12.57;;;3.95;;
19623;SDS011;9959;49.798;9.928;2023-10-08T00:57:18;10.45;;;4.40;;
19623;SDS011;9959;49.798;9.928;2023-10-08T00:59:48;9.75;;;4.10;;
19623;SDS011;9959;49.798;9.928;2023-10-08T01:02:20;11.05;;;3.45;;
19623;SDS011;9959;49.798;9.928;2023-10-08T01:04:54;12.18;;;4.22;;
19623;SDS011;9959;49.798;9.928;2023-10-08T01:07:22;8.75;;;3.60;;
19623;SDS011;9959;49.798;9.928;2023-10-08T01:09:52;7.75;;;4.07;;
19623;SDS011;9959;49.798;9.928;2023-10-08T01:12:25;9.23;;;3.60;;
19623;SDS011;9959;49.798;9.928;2023-10-08T01:14:54;9.27;;;4.00;;
19623;SDS011;9959;49.798;9.928;2023-10-08T01:17:22;10.35;;;4.32;;
19623;SDS011;9959;49.798;9.928;2023-10-08T01:19:58;9.45;;;3.65;;
19623;SDS011;9959;49.798;9.928;2023-10-08T01:22:57;11.18;;;3.88;;
19623;SDS011;9959;49.798;9.928;2023-10-08T01:25:24;10.50;;;4.05;;
19623;SDS011;9959;49.798;9.928;2023-10-08T01:27:56;7.07;;;3.67;;
19623;SDS011;9959;49.798;9.928;2023-10-08T01:30:27;8.10;;;3.58;;
19623;SDS011;9959;49.798;9.928;2023-10-08T01:33:01;10.23;;;3.97;;
19623;SDS011;9959;49.798;9.928;2023-10-08T01:35:29;7.40;;;4.03;;
19623;SDS011;9959;49.798;9.928;2023-10-08T01:37:58;13.25;;;4.20;;
19623;SDS011;9959;49.798;9.928;2023-10-08T01:40:26;7.93;;;4.18;;
19623;SDS011;9959;49.798;9.928;2023-10-08T01:42:56;10.80;;;3.97;;
19623;SDS011;9959;49.798;9.928;2023-10-08T01:45:32;8.18;;;3.80;;
19623;SDS011;9959;49.798;9.928;2023-10-08T01:48:02;9.25;;;3.80;;
19623;SDS011;9959;49.798;9.928;2023-10-08T01:50:30;13.20;;;4.00;;
19623;SDS011;9959;49.798;9.928;2023-10-08T01:53:01;8.52;;;3.83;;
19623;SDS011;9959;49.798;9.928;2023-10-08T01:55:28;7.53;;;4.25;;
19623;SDS011;9959;49.798;9.928;2023-10-08T01:58:00;10.73;;;4.32;;
19623;SDS011;9959;49.798;9.928;2023-10-08T02:00:27;9.75;;;3.92;;
19623;SDS011;9959;49.798;9.928;2023-10-08T02:02:54;10.05;;;4.05;;
19623;SDS011;9959;49.798;9.928;2023-10-08T02:05:21;13.32;;;4.18;;
19623;SDS011;9959;49.798;9.928;2023-10-08T02:07:49;8.43;;;4.00;;
19623;SDS011;9959;49.798;9.928;2023-10-08T02:10:17;11.88;;;4.15;;
19623;SDS011;9959;49.798;9.928;2023-10-08T02:12:44;12.68;;;4.60;;
19623;SDS011;9959;49.798;9.928;2023-10-08T02:15:12;14.38;;;4.22;;
19623;SDS011;9959;49.798;9.928;2023-10-08T02:17:38;6.57;;;3.85;;
19623;SDS011;9959;49.798;9.928;2023-10-08T02:20:06;11.15;;;5.00;;
19623;SDS011;9959;49.798;9.928;2023-10-08T02:22:33;11.77;;;4.03;;
19623;SDS011;9959;49.798;9.928;2023-10-08T02:25:01;12.68;;;4.28;;
19623;SDS011;9959;49.798;9.928;2023-10-08T02:27:28;8.02;;;4.22;;
19623;SDS011;9959;49.798;9.928;2023-10-08T02:29:55;8.65;;;3.90;;
19623;SDS011;9959;49.798;9.928;2023-10-08T02:32:22;8.90;;;4.53;;
19623;SDS011;9959;49.798;9.928;2023-10-08T02:34:49;8.75;;;4.90;;
19623;SDS011;9959;49.798;9.928;2023-10-08T02:37:19;8.88;;;4.07;;
19623;SDS011;9959;49.798;9.928;2023-10-08T02:39:46;8.13;;;4.03;;
19623;SDS011;9959;49.798;9.928;2023-10-08T02:42:13;7.78;;;3.97;;
19623;SDS011;9959;49.798;9.928;2023-10-08T02:44:40;11.95;;;4.22;;
19623;SDS011;9959;49.798;9.928;2023-10-08T02:47:11;11.40;;;4.85;;
19623;SDS011;9959;49.798;9.928;2023-10-08T02:49:39;12.48;;;4.57;;
19623;SDS011;9959;49.798;9.928;2023-10-08T02:52:07;6.80;;;3.80;;
19623;SDS011;9959;49.798;9.928;2023-10-08T02:54:37;7.55;;;3.85;;
19623;SDS011;9959;49.798;9.928;2023-10-08T02:57:04;9.25;;;4.28;;
19623;SDS011;9959;49.798;9.928;2023-10-08T02:59:37;8.80;;;4.03;;
19623;SDS011;9959;49.798;9.928;2023-10-08T03:02:11;9.82;;;3.95;;
19623;SDS011;9959;49.798;9.928;2023-10-08T03:04:46;10.32;;;4.05;;
19623;SDS011;9959;49.798;9.928;2023-10-08T03:07:15;8.95;;;3.63;;
19623;SDS011;9959;49.798;9.928;2023-10-08T03:09:49;11.20;;;4.15;;
19623;SDS011;9959;49.798;9.928;2023-10-08T03:12:32;12.73;;;4.18;;
19623;SDS011;9959;49.798;9.928;2023-10-08T03:15:00;8.10;;;3.92;;
19623;SDS011;9959;49.798;9.928;2023-10-08T03:17:47;13.18;;;4.65;;
19623;SDS011;9959;49.798;9.928;2023-10-08T03:20:16;10.75;;;4.40;;
19623;SDS011;9959;49.798;9.928;2023-10-08T03:23:16;8.60;;;4.20;;
19623;SDS011;9959;49.798;9.928;2023-10-08T03:25:54;9.82;;;4.57;;
19623;SDS011;9959;49.798;9.928;2023-10-08T03:28:36;11.15;;;4.18;;
19623;SDS011;9959;49.798;9.928;2023-10-08T03:31:04;8.02;;;4.40;;
19623;SDS011;9959;49.798;9.928;2023-10-08T03:33:32;9.15;;;4.57;;
19623;SDS011;9959;49.798;9.928;2023-10-08T03:36:04;14.90;;;4.47;;
19623;SDS011;9959;49.798;9.928;2023-10-08T03:38:37;9.85;;;4.03;;
19623;SDS011;9959;49.798;9.928;2023-10-08T03:41:25;12.45;;;3.90;;
19623;SDS011;9959;49.798;9.928;2023-10-08T03:43:59;12.05;;;4.97;;
19623;SDS011;9959;49.798;9.928;2023-10-08T03:46:33;12.73;;;4.50;;
19623;SDS011;9959;49.798;9.928;2023-10-08T03:49:09;10.90;;;4.68;;
19623;SDS011;9959;49.798;9.928;2023-10-08T03:51:49;12.57;;;4.57;;
19623;SDS011;9959;49.798;9.928;2023-10-08T03:54:21;9.38;;;4.20;;
19623;SDS011;9959;49.798;9.928;2023-10-08T03:57:01;7.28;;;3.95;;
19623;SDS011;9959;49.798;9.928;2023-10-08T03:59:31;8.77;;;4.63;;
19623;SDS011;9959;49.798;9.928;2023-10-08T04:01:58;10.20;;;4.75;;
19623;SDS011;9959;49.798;9.928;2023-10-08T04:04:48;12.30;;;4.90;;
19623;SDS011;9959;49.798;9.928;2023-10-08T04:07:16;12.90;;;4.80;;
19623;SDS011;9959;49.798;9.928;2023-10-08T04:10:00;13.50;;;4.85;;
19623;SDS011;9959;49.798;9.928;2023-10-08T04:12:47;12.45;;;5.00;;
19623;SDS011;9959;49.798;9.928;2023-10-08T04:15:17;12.80;;;5.22;;
19623;SDS011;9959;49.798;9.928;2023-10-08T04:17:46;11.25;;;4.95;;
19623;SDS011;9959;49.798;9.928;2023-10-08T04:20:18;9.65;;;5.18;;
19623;SDS011;9959;49.798;9.928;2023-10-08T04:23:07;10.43;;;4.97;;
19623;SDS011;9959;49.798;9.928;2023-10-08T04:25:45;9.00;;;4.55;;
19623;SDS011;9959;49.798;9.928;2023-10-08T04:28:13;10.30;;;4.38;;
19623;SDS011;9959;49.798;9.928;2023-10-08T04:30:47;12.85;;;4.68;;
19623;SDS011;9959;49.798;9.928;2023-10-08T04:33:14;11.30;;;4.65;;
19623;SDS011;9959;49.798;9.928;2023-10-08T04:35:42;13.13;;;4.20;;
19623;SDS011;9959;49.798;9.928;2023-10-08T04:38:19;12.30;;;5.45;;
19623;SDS011;9959;49.798;9.928;2023-10-08T04:40:50;7.70;;;4.22;;
19623;SDS011;9959;49.798;9.928;2023-10-08T04:43:23;12.63;;;4.28;;
19623;SDS011;9959;49.798;9.928;2023-10-08T04:45:57;9.70;;;4.72;;
19623;SDS011;9959;49.798;9.928;2023-10-08T04:48:26;12.35;;;4.80;;
19623;SDS011;9959;49.798;9.928;2023-10-08T04:50:58;9.52;;;4.43;;
19623;SDS011;9959;49.798;9.928;2023-10-08T04:53:27;14.10;;;4.53;;
19623;SDS011;9959;49.798;9.928;2023-10-08T04:55:59;11.02;;;4.15;;
19623;SDS011;9959;49.798;9.928;2023-10-08T04:58:33;11.90;;;5.13;;
19623;SDS011;9959;49.798;9.928;2023-10-08T05:01:03;12.52;;;4.57;;
19623;SDS011;9959;49.798;9.928;2023-10-08T05:03:50;11.45;;;4.20;;
19623;SDS011;9959;49.798;9.928;2023-10-08T05:06:41;12.35;;;5.18;;
19623;SDS011;9959;49.798;9.928;2023-10-08T05:09:12;13.30;;;5.22;;
19623;SDS011;9959;49.798;9.928;2023-10-08T05:11:46;8.35;;;4.07;;
19623;SDS011;9959;49.798;9.928;2023-10-08T05:14:14;9.80;;;4.97;;
19623;SDS011;9959;49.798;9.928;2023-10-08T05:17:02;11.68;;;4.63;;
19623;SDS011;9959;49.798;9.928;2023-10-08T05:19:38;10.75;;;4.72;;
19623;SDS011;9959;49.798;9.928;2023-10-08T05:22:13;8.63;;;4.53;;
19623;SDS011;9959;49.798;9.928;2023-10-08T05:25:10;10.38;;;4.53;;
19623;SDS011;9959;49.798;9.928;2023-10-08T05:27:44;9.32;;;4.53;;
19623;SDS011;9959;49.798;9.928;2023-10-08T05:30:19;10.07;;;4.70;;
19623;SDS011;9959;49.798;9.928;2023-10-08T05:33:19;8.45;;;4.45;;
19623;SDS011;9959;49.798;9.928;2023-10-08T05:36:06;8.57;;;4.60;;
19623;SDS011;9959;49.798;9.928;2023-10-08T05:38:44;11.50;;;4.65;;
19623;SDS011;9959;49.798;9.928;2023-10-08T05:41:27;10.45;;;5.13;;
19623;SDS011;9959;49.798;9.928;2023-10-08T05:43:55;11.82;;;5.43;;
19623;SDS011;9959;49.798;9.928;2023-10-08T05:46:41;12.45;;;4.43;;
19623;SDS011;9959;49.798;9.928;2023-10-08T05:49:23;9.98;;;4.85;;
19623;SDS011;9959;49.798;9.928;2023-10-08T05:52:05;10.23;;;5.38;;
19623;SDS011;9959;49.798;9.928;2023-10-08T05:54:32;15.57;;;4.88;;
19623;SDS011;9959;49.798;9.928;2023-10-08T05:57:03;12.43;;;6.30;;
19623;SDS011;9959;49.798;9.928;2023-10-08T06:02:40;11.75;;;4.25;;
19623;SDS011;9959;49.798;9.928;2023-10-08T06:05:11;13.60;;;5.10;;
19623;SDS011;9959;49.798;9.928;2023-10-08T06:07:42;12.20;;;4.68;;
19623;SDS011;9959;49.798;9.928;2023-10-08T06:13:04;9.15;;;5.32;;
19623;SDS011;9959;49.798;9.928;2023-10-08T06:15:51;11.27;;;4.63;;
19623;SDS011;9959;49.798;9.928;2023-10-08T06:18:22;9.77;;;4.65;;
19623;SDS011;9959;49.798;9.928;2023-10-08T06:20:55;11.75;;;5.53;;
19623;SDS011;9959;49.798;9.928;2023-10-08T06:23:26;13.65;;;5.35;;
19623;SDS011;9959;49.798;9.928;2023-10-08T06:25:55;9.43;;;5.10;;
19623;SDS011;9959;49.798;9.928;2023-10-08T06:28:32;12.38;;;4.90;;
19623;SDS011;9959;49.798;9.928;2023-10-08T06:31:02;11.85;;;4.30;;
19623;SDS011;9959;49.798;9.928;2023-10-08T06:33:33;9.80;;;4.47;;
19623;SDS011;9959;49.798;9.928;2023-10-08T06:36:00;11.02;;;4.63;;
19623;SDS011;9959;49.798;9.928;2023-10-08T06:38:42;11.70;;;4.30;;
19623;SDS011;9959;49.798;9.928;2023-10-08T06:41:11;12.18;;;4.90;;
19623;SDS011;9959;49.798;9.928;2023-10-08T06:43:48;12.57;;;4.60;;
19623;SDS011;9959;49.798;9.928;2023-10-08T06:46:19;8.40;;;3.88;;
19623;SDS011;9959;49.798;9.928;2023-10-08T06:48:48;11.00;;;4.50;;
19623;SDS011;9959;49.798;9.928;2023-10-08T06:51:15;11.43;;;4.75;;
19623;SDS011;9959;49.798;9.928;2023-10-08T06:53:46;9.82;;;4.57;;
19623;SDS011;9959;49.798;9.928;2023-10-08T06:56:15;11.88;;;4.70;;
19623;SDS011;9959;49.798;9.928;2023-10-08T06:58:42;8.93;;;3.92;;
19623;SDS011;9959;49.798;9.928;2023-10-08T07:01:19;10.68;;;5.13;;
19623;SDS011;9959;49.798;9.928;2023-10-08T07:03:51;11.98;;;4.70;;
19623;SDS011;9959;49.798;9.928;2023-10-08T07:06:30;14.10;;;5.63;;
19623;SDS011;9959;49.798;9.928;2023-10-08T07:09:04;8.65;;;4.20;;
19623;SDS011;9959;49.798;9.928;2023-10-08T07:11:32;9.75;;;4.70;;
19623;SDS011;9959;49.798;9.928;2023-10-08T07:14:06;12.05;;;4.32;;
19623;SDS011;9959;49.798;9.928;2023-10-08T07:16:33;10.95;;;5.10;;
19623;SDS011;9959;49.798;9.928;2023-10-08T07:19:01;10.82;;;4.60;;
19623;SDS011;9959;49.798;9.928;2023-10-08T07:21:30;12.50;;;4.60;;
19623;SDS011;9959;49.798;9.928;2023-10-08T07:24:05;10.60;;;4.63;;
19623;SDS011;9959;49.798;9.928;2023-10-08T07:26:41;8.73;;;4.93;;
19623;SDS011;9959;49.798;9.928;2023-10-08T07:29:14;13.40;;;4.80;;
19623;SDS011;9959;49.798;9.928;2023-10-08T07:31:46;15.32;;;4.38;;
19623;SDS011;9959;49.798;9.928;2023-10-08T07:34:15;13.40;;;5.03;;
19623;SDS011;9959;49.798;9.928;2023-10-08T07:36:45;10.73;;;4.43;;
19623;SDS011;9959;49.798;9.928;2023-10-08T07:39:14;11.15;;;5.18;;
19623;SDS011;9959;49.798;9.928;2023-10-08T07:42:04;10.07;;;4.20;;
19623;SDS011;9959;49.798;9.928;2023-10-08T07:44:34;10.50;;;4.90;;
19623;SDS011;9959;49.798;9.928;2023-10-08T07:47:08;9.52;;;4.70;;
19623;SDS011;9959;49.798;9.928;2023-10-08T07:49:38;11.07;;;4.43;;
19623;SDS011;9959;49.798;9.928;2023-10-08T07:52:05;12.40;;;4.85;;
19623;SDS011;9959;49.798;9.928;2023-10-08T07:54:33;9.35;;;4.82;;
19623;SDS011;9959;49.798;9.928;2023-10-08T07:57:03;11.82;;;5.93;;
19623;SDS011;9959;49.798;9.928;2023-10-08T07:59:39;10.90;;;4.72;;
19623;SDS011;9959;49.798;9.928;2023-10-08T08:02:15;12.68;;;4.95;;
19623;SDS011;9959;49.798;9.928;2023-10-08T08:04:44;11.77;;;4.80;;
19623;SDS011;9959;49.798;9.928;2023-10-08T08:07:13;11.32;;;4.70;;
19623;SDS011;9959;49.798;9.928;2023-10-08T08:09:43;11.07;;;5.10;;
19623;SDS011;9959;49.798;9.928;2023-10-08T08:12:41;12.68;;;4.88;;
19623;SDS011;9959;49.798;9.928;2023-10-08T08:15:08;11.63;;;4.70;;
19623;SDS011;9959;49.798;9.928;2023-10-08T08:17:42;10.82;;;4.85;;
19623;SDS011;9959;49.798;9.928;2023-10-08T08:20:10;10.50;;;5.00;;
19623;SDS011;9959;49.798;9.928;2023-10-08T08:22:49;10.35;;;4.88;;
19623;SDS011;9959;49.798;9.928;2023-10-08T08:25:21;11.23;;;4.63;;
19623;SDS011;9959;49.798;9.928;2023-10-08T08:28:01;11.75;;;5.05;;
19623;SDS011;9959;49.798;9.928;2023-10-08T08:30:28;10.95;;;4.95;;
19623;SDS011;9959;49.798;9.928;2023-10-08T08:32:54;16.60;;;4.90;;
19623;SDS011;9959;49.798;9.928;2023-10-08T08:35:23;8.73;;;4.60;;
19623;SDS011;9959;49.798;9.928;2023-10-08T08:37:51;10.02;;;4.78;;
19623;SDS011;9959;49.798;9.928;2023-10-08T08:40:18;13.25;;;5.25;;
19623;SDS011;9959;49.798;9.928;2023-10-08T08:42:47;12.93;;;5.68;;
19623;SDS011;9959;49.798;9.928;2023-10-08T08:45:22;8.73;;;4.72;;
19623;SDS011;9959;49.798;9.928;2023-10-08T08:47:53;13.77;;;5.60;;
19623;SDS011;9959;49.798;9.928;2023-10-08T08:50:21;13.05;;;5.32;;
19623;SDS011;9959;49.798;9.928;2023-10-08T08:52:48;9.88;;;4.53;;
19623;SDS011;9959;49.798;9.928;2023-10-08T08:55:18;10.55;;;4.28;;
19623;SDS011;9959;49.798;9.928;2023-10-08T08:57:49;10.60;;;5.10;;
19623;SDS011;9959;49.798;9.928;2023-10-08T09:00:18;17.38;;;5.65;;
19623;SDS011;9959;49.798;9.928;2023-10-08T09:02:45;17.33;;;4.32;;
19623;SDS011;9959;49.798;9.928;2023-10-08T09:05:15;11.05;;;4.65;;
19623;SDS011;9959;49.798;9.928;2023-10-08T09:10:31;8.60;;;4.72;;
19623;SDS011;9959;49.798;9.928;2023-10-08T09:13:22;13.43;;;4.50;;
19623;SDS011;9959;49.798;9.928;2023-10-08T09:15:50;10.20;;;4.47;;
19623;SDS011;9959;49.798;9.928;2023-10-08T09:18:22;11.38;;;4.60;;
19623;SDS011;9959;49.798;9.928;2023-10-08T09:20:51;11.30;;;4.50;;
19623;SDS011;9959;49.798;9.928;2023-10-08T09:23:18;12.40;;;5.03;;
19623;SDS011;9959;49.798;9.928;2023-10-08T09:25:49;13.25;;;5.47;;
19623;SDS011;9959;49.798;9.928;2023-10-08T09:28:30;11.98;;;5.25;;
19623;SDS011;9959;49.798;9.928;2023-10-08T09:31:01;9.75;;;4.60;;
19623;SDS011;9959;49.798;9.928;2023-10-08T09:33:32;10.68;;;4.70;;
19623;SDS011;9959;49.798;9.928;2023-10-08T09:35:59;12.70;;;4.65;;
19623;SDS011;9959;49.798;9.928;2023-10-08T09:38:33;10.07;;;5.10;;
19623;SDS011;9959;49.798;9.928;2023-10-08T09:41:01;10.48;;;4.78;;
19623;SDS011;9959;49.798;9.928;2023-10-08T09:43:30;11.40;;;4.78;;
19623;SDS011;9959;49.798;9.928;2023-10-08T09:46:08;10.57;;;5.18;;
19623;SDS011;9959;49.798;9.928;2023-10-08T09:48:41;10.30;;;5.30;;
19623;SDS011;9959;49.798;9.928;2023-10-08T09:51:11;10.52;;;4.88;;
19623;SDS011;9959;49.798;9.928;2023-10-08T09:53:51;12.27;;;5.00;;
19623;SDS011;9959;49.798;9.928;2023-10-08T09:56:31;11.73;;;4.75;;
19623;SDS011;9959;49.798;9.928;2023-10-08T09:58:59;11.77;;;4.72;;
19623;SDS011;9959;49.798;9.928;2023-10-08T10:01:27;12.13;;;5.07;;
19623;SDS011;9959;49.798;9.928;2023-10-08T10:03:55;12.00;;;5.13;;
19623;SDS011;9959;49.798;9.928;2023-10-08T10:06:26;17.83;;;5.57;;
19623;SDS011;9959;49.798;9.928;2023-10-08T10:08:56;11.55;;;5.70;;
19623;SDS011;9959;49.798;9.928;2023-10-08T10:11:30;12.57;;;5.45;;
19623;SDS011;9959;49.798;9.928;2023-10-08T10:13:58;11.85;;;4.57;;
19623;SDS011;9959;49.798;9.928;2023-10-08T10:16:27;10.57;;;4.70;;
19623;SDS011;9959;49.798;9.928;2023-10-08T10:18:55;10.90;;;4.88;;
19623;SDS011;9959;49.798;9.928;2023-10-08T10:21:29;13.95;;;5.93;;
19623;SDS011;9959;49.798;9.928;2023-10-08T10:23:57;10.82;;;4.80;;
19623;SDS011;9959;49.798;9.928;2023-10-08T10:26:27;12.45;;;5.53;;
19623;SDS011;9959;49.798;9.928;2023-10-08T10:34:14;13.77;;;5.50;;
19623;SDS011;9959;49.798;9.928;2023-10-08T10:36:44;16.05;;;5.43;;
19623;SDS011;9959;49.798;9.928;2023-10-08T10:39:16;10.80;;;5.30;;
19623;SDS011;9959;49.798;9.928;2023-10-08T10:41:45;10.77;;;4.65;;
19623;SDS011;9959;49.798;9.928;2023-10-08T10:44:15;7.57;;;4.45;;
19623;SDS011;9959;49.798;9.928;2023-10-08T10:46:46;15.02;;;5.90;;
19623;SDS011;9959;49.798;9.928;2023-10-08T10:49:39;11.73;;;5.07;;
19623;SDS011;9959;49.798;9.928;2023-10-08T10:52:23;11.32;;;4.80;;
19623;SDS011;9959;49.798;9.928;2023-10-08T10:55:11;14.23;;;5.10;;
19623;SDS011;9959;49.798;9.928;2023-10-08T10:57:47;9.45;;;4.85;;
19623;SDS011;9959;49.798;9.928;2023-10-08T11:00:31;13.60;;;5.07;;
19623;SDS011;9959;49.798;9.928;2023-10-08T11:03:02;14.10;;;6.20;;
19623;SDS011;9959;49.798;9.928;2023-10-08T11:05:37;10.18;;;5.00;;
19623;SDS011;9959;49.798;9.928;2023-10-08T11:08:06;13.98;;;5.50;;
19623;SDS011;9959;49.798;9.928;2023-10-08T11:10:38;11.55;;;5.13;;
19623;SDS011;9959;49.798;9.928;2023-10-08T11:13:09;8.77;;;5.32;;
19623;SDS011;9959;49.798;9.928;2023-10-08T11:15:44;19.35;;;5.70;;
19623;SDS011;9959;49.798;9.928;2023-10-08T11:18:17;14.48;;;5.13;;
19623;SDS011;9959;49.798;9.928;2023-10-08T11:20:48;11.15;;;5.25;;
19623;SDS011;9959;49.798;9.928;2023-10-08T11:23:33;11.05;;;4.53;;
19623;SDS011;9959;49.798;9.928;2023-10-08T11:26:05;12.65;;;5.03;;
19623;SDS011;9959;49.798;9.928;2023-10-08T11:28:36;12.10;;;5.20;;
19623;SDS011;9959;49.798;9.928;2023-10-08T11:31:14;11.10;;;5.43;;
19623;SDS011;9959;49.798;9.928;2023-10-08T11:33:46;12.27;;;5.30;;
19623;SDS011;9959;49.798;9.928;2023-10-08T11:36:23;10.85;;;5.10;;
19623;SDS011;9959;49.798;9.928;2023-10-08T11:39:11;11.48;;;5.25;;
19623;SDS011;9959;49.798;9.928;2023-10-08T11:41:57;10.07;;;5.10;;
19623;SDS011;9959;49.798;9.928;2023-10-08T11:44:33;9.13;;;5.18;;
19623;SDS011;9959;49.798;9.928;2023-10-08T11:47:04;16.73;;;5.65;;
19623;SDS011;9959;49.798;9.928;2023-10-08T11:49:39;12.80;;;5.20;;
19623;SDS011;9959;49.798;9.928;2023-10-08T11:52:14;11.43;;;5.80;;
19623;SDS011;9959;49.798;9.928;2023-10-08T11:54:48;14.95;;;5.53;;
19623;SDS011;9959;49.798;9.928;2023-10-08T11:57:18;9.48;;;5.18;;
19623;SDS011;9959;49.798;9.928;2023-10-08T11:59:49;14.40;;;5.95;;
19623;SDS011;9959;49.798;9.928;2023-10-08T12:02:23;14.63;;;6.47;;
19623;SDS011;9959;49.798;9.928;2023-10-08T12:04:51;10.68;;;5.75;;
19623;SDS011;9959;49.798;9.928;2023-10-08T12:07:18;14.25;;;5.65;;
19623;SDS011;9959;49.798;9.928;2023-10-08T12:09:46;12.50;;;5.55;;
19623;SDS011;9959;49.798;9.928;2023-10-08T12:12:15;15.48;;;6.05;;
19623;SDS011;9959;49.798;9.928;2023-10-08T12:14:45;15.90;;;5.65;;
19623;SDS011;9959;49.798;9.928;2023-10-08T12:17:14;14.27;;;5.30;;
19623;SDS011;9959;49.798;9.928;2023-10-08T12:19:43;11.45;;;5.40;;
19623;SDS011;9959;49.798;9.928;2023-10-08T12:22:12;17.13;;;5.60;;
19623;SDS011;9959;49.798;9.928;2023-10-08T12:24:46;12.27;;;5.55;;
19623;SDS011;9959;49.798;9.928;2023-10-08T12:27:13;15.30;;;6.57;;
19623;SDS011;9959;49.798;9.928;2023-10-08T12:29:44;15.50;;;5.85;;
19623;SDS011;9959;49.798;9.928;2023-10-08T12:32:11;17.38;;;6.22;;
19623;SDS011;9959;49.798;9.928;2023-10-08T12:34:44;19.25;;;6.43;;
19623;SDS011;9959;49.798;9.928;2023-10-08T12:37:11;17.30;;;5.82;;
19623;SDS011;9959;49.798;9.928;2023-10-08T12:39:41;20.38;;;6.10;;
19623;SDS011;9959;49.798;9.928;2023-10-08T12:42:23;14.27;;;5.80;;
19623;SDS011;9959;49.798;9.928;2023-10-08T12:44:52;14.63;;;5.93;;
19623;SDS011;9959;49.798;9.928;2023-10-08T12:47:19;15.40;;;6.05;;
19623;SDS011;9959;49.798;9.928;2023-10-08T12:49:46;11.93;;;5.78;;
19623;SDS011;9959;49.798;9.928;2023-10-08T12:52:13;14.23;;;6.50;;
19623;SDS011;9959;49.798;9.928;2023-10-08T12:54:41;19.42;;;6.13;;
19623;SDS011;9959;49.798;9.928;2023-10-08T12:57:12;17.80;;;6.43;;
19623;SDS011;9959;49.798;9.928;2023-10-08T12:59:42;15.30;;;5.82;;
19623;SDS011;9959;49.798;9.928;2023-10-08T13:02:15;13.23;;;5.65;;
19623;SDS011;9959;49.798;9.928;2023-10-08T13:04:43;14.93;;;5.78;;
19623;SDS011;9959;49.798;9.928;2023-10-08T13:07:12;16.15;;;6.00;;
19623;SDS011;9959;49.798;9.928;2023-10-08T13:09:41;14.55;;;6.07;;
19623;SDS011;9959;49.798;9.928;2023-10-08T13:12:09;13.43;;;5.15;;
19623;SDS011;9959;49.798;9.928;2023-10-08T13:14:37;13.05;;;5.82;;
19623;SDS011;9959;49.798;9.928;2023-10-08T13:17:04;11.43;;;6.15;;
19623;SDS011;9959;49.798;9.928;2023-10-08T13:19:30;14.60;;;6.25;;
19623;SDS011;9959;49.798;9.928;2023-10-08T13:22:01;18.60;;;6.13;;
19623;SDS011;9959;49.798;9.928;2023-10-08T13:24:28;13.77;;;6.53;;
19623;SDS011;9959;49.798;9.928;2023-10-08T13:26:55;14.80;;;6.30;;
19623;SDS011;9959;49.798;9.928;2023-10-08T13:29:25;14.23;;;5.82;;
19623;SDS011;9959;49.798;9.928;2023-10-08T13:32:00;15.65;;;5.47;;
19623;SDS011;9959;49.798;9.928;2023-10-08T13:34:28;15.02;;;5.32;;
19623;SDS011;9959;49.798;9.928;2023-10-08T13:36:55;18.15;;;5.75;;
19623;SDS011;9959;49.798;9.928;2023-10-08T13:39:23;14.15;;;5.90;;
19623;SDS011;9959;49.798;9.928;2023-10-08T13:41:50;14.52;;;5.68;;
19623;SDS011;9959;49.798;9.928;2023-10-08T13:44:19;13.88;;;5.68;;
19623;SDS011;9959;49.798;9.928;2023-10-08T13:46:56;13.70;;;6.18;;
19623;SDS011;9959;49.798;9.928;2023-10-08T13:49:27;13.52;;;5.80;;
19623;SDS011;9959;49.798;9.928;2023-10-08T13:51:54;11.45;;;5.70;;
19623;SDS011;9959;49.798;9.928;2023-10-08T13:54:24;12.45;;;5.57;;
19623;SDS011;9959;49.798;9.928;2023-10-08T13:57:02;15.25;;;5.88;;
19623;SDS011;9959;49.798;9.928;2023-10-08T13:59:29;16.15;;;6.57;;
19623;SDS011;9959;49.798;9.928;2023-10-08T14:01:59;14.63;;;6.20;;
19623;SDS011;9959;49.798;9.928;2023-10-08T14:04:29;18.65;;;7.07;;
19623;SDS011;9959;49.798;9.928;2023-10-08T14:07:07;12.75;;;5.95;;
19623;SDS011;9959;49.798;9.928;2023-10-08T14:09:34;16.08;;;6.43;;
19623;SDS011;9959;49.798;9.928;2023-10-08T14:12:08;13.40;;;5.03;;
19623;SDS011;9959;49.798;9.928;2023-10-08T14:14:40;7.72;;;4.55;;
19623;SDS011;9959;49.798;9.928;2023-10-08T14:17:11;14.45;;;4.50;;
19623;SDS011;9959;49.798;9.928;2023-10-08T14:19:42;10.40;;;4.30;;
19623;SDS011;9959;49.798;9.928;2023-10-08T14:22:19;12.13;;;5.05;;
19623;SDS011;9959;49.798;9.928;2023-10-08T14:24:49;13.20;;;4.90;;
19623;SDS011;9959;49.798;9.928;2023-10-08T14:27:28;8.95;;;4.25;;
19623;SDS011;9959;49.798;9.928;2023-10-08T14:29:59;10.57;;;4.90;;
19623;SDS011;9959;49.798;9.928;2023-10-08T14:32:32;12.38;;;4.70;;
19623;SDS011;9959;49.798;9.928;2023-10-08T14:35:00;11.02;;;5.05;;
19623;SDS011;9959;49.798;9.928;2023-10-08T14:37:45;9.90;;;5.15;;
19623;SDS011;9959;49.798;9.928;2023-10-08T14:40:31;12.93;;;4.95;;
19623;SDS011;9959;49.798;9.928;2023-10-08T14:43:17;11.95;;;4.97;;
19623;SDS011;9959;49.798;9.928;2023-10-08T14:45:46;9.40;;;4.25;;
19623;SDS011;9959;49.798;9.928;2023-10-08T14:48:14;19.73;;;5.93;;
19623;SDS011;9959;49.798;9.928;2023-10-08T14:50:41;12.48;;;4.40;;
19623;SDS011;9959;49.798;9.928;2023-10-08T14:53:09;9.90;;;4.55;;
19623;SDS011;9959;49.798;9.928;2023-10-08T14:55:36;6.40;;;4.00;;
19623;SDS011;9959;49.798;9.928;2023-10-08T14:58:04;9.68;;;4.45;;
19623;SDS011;9959;49.798;9.928;2023-10-08T15:00:37;11.88;;;4.45;;
19623;SDS011;9959;49.798;9.928;2023-10-08T15:03:06;11.70;;;4.45;;
19623;SDS011;9959;49.798;9.928;2023-10-08T15:05:33;7.35;;;3.88;;
19623;SDS011;9959;49.798;9.928;2023-10-08T15:08:04;10.93;;;4.22;;
19623;SDS011;9959;49.798;9.928;2023-10-08T15:10:37;8.55;;;4.00;;
19623;SDS011;9959;49.798;9.928;2023-10-08T15:13:04;12.38;;;4.45;;
19623;SDS011;9959;49.798;9.928;2023-10-08T15:15:33;13.18;;;4.38;;
19623;SDS011;9959;49.798;9.928;2023-10-08T15:18:07;9.63;;;4.40;;
19623;SDS011;9959;49.798;9.928;2023-10-08T15:20:34;8.45;;;4.40;;
19623;SDS011;9959;49.798;9.928;2023-10-08T15:23:01;13.45;;;4.68;;
19623;SDS011;9959;49.798;9.928;2023-10-08T15:25:29;9.77;;;4.50;;
19623;SDS011;9959;49.798;9.928;2023-10-08T15:27:56;8.50;;;4.15;;
19623;SDS011;9959;49.798;9.928;2023-10-08T15:30:24;9.45;;;4.50;;
19623;SDS011;9959;49.798;9.928;2023-10-08T15:32:52;9.48;;;4.45;;
19623;SDS011;9959;49.798;9.928;2023-10-08T15:35:21;10.27;;;4.88;;